sensor_id;sensor_type;location;lat;lon;timestamp;P1;durP1;ratioP1;P2;durP2;ratioP2
42092;SDS011;28974;50.316;18.960;2023-02-19T00:06:55;13.13;;;6.60;;
42092;SDS011;28974;50.316;18.960;2023-02-19T00:18:56;34.45;;;12.63;;
42092;SDS011;28974;50.316;18.960;2023-02-19T00:31:06;23.33;;;8.88;;
42092;SDS011;28974;50.316;18.960;2023-02-19T00:43:06;16.90;;;8.80;;
42092;SDS011;28974;50.316;18.960;2023-02-19T00:55:07;15.25;;;6.95;;
42092;SDS011;28974;50.316;18.960;2023-02-19T01:07:07;12.98;;;6.65;;
42092;SDS011;28974;50.316;18.960;2023-02-19T01:19:09;18.27;;;8.43;;
42092;SDS011;28974;50.316;18.960;2023-02-19T01:31:14;13.15;;;7.18;;
42092;SDS011;28974;50.316;18.960;2023-02-19T01:43:15;17.35;;;8.10;;
42092;SDS011;28974;50.316;18.960;2023-02-19T01:55:15;18.10;;;8.90;;
42092;SDS011;28974;50.316;18.960;2023-02-19T02:07:15;14.07;;;7.55;;
42092;SDS011;28974;50.316;18.960;2023-02-19T02:31:42;18.27;;;11.77;;
42092;SDS011;28974;50.316;18.960;2023-02-19T02:43:46;20.83;;;11.02;;
42092;SDS011;28974;50.316;18.960;2023-02-19T02:55:49;14.73;;;8.48;;
42092;SDS011;28974;50.316;18.960;2023-02-19T03:08:07;16.33;;;8.45;;
42092;SDS011;28974;50.316;18.960;2023-02-19T03:20:14;11.07;;;5.28;;
42092;SDS011;28974;50.316;18.960;2023-02-19T03:32:17;7.22;;;5.10;;
42092;SDS011;28974;50.316;18.960;2023-02-19T03:56:42;9.57;;;5.63;;
42092;SDS011;28974;50.316;18.960;2023-02-19T04:08:46;11.93;;;4.73;;
42092;SDS011;28974;50.316;18.960;2023-02-19T04:20:49;11.52;;;6.65;;
42092;SDS011;28974;50.316;18.960;2023-02-19T04:32:50;17.38;;;9.68;;
42092;SDS011;28974;50.316;18.960;2023-02-19T04:44:50;23.60;;;11.10;;
42092;SDS011;28974;50.316;18.960;2023-02-19T04:56:51;27.65;;;13.68;;
42092;SDS011;28974;50.316;18.960;2023-02-19T05:08:51;35.50;;;18.15;;
42092;SDS011;28974;50.316;18.960;2023-02-19T05:20:52;39.95;;;21.10;;
42092;SDS011;28974;50.316;18.960;2023-02-19T05:32:52;38.40;;;20.33;;
42092;SDS011;28974;50.316;18.960;2023-02-19T05:44:52;27.30;;;16.17;;
42092;SDS011;28974;50.316;18.960;2023-02-19T05:56:53;27.17;;;14.77;;
42092;SDS011;28974;50.316;18.960;2023-02-19T06:08:53;18.85;;;10.48;;
42092;SDS011;28974;50.316;18.960;2023-02-19T06:20:58;13.25;;;7.05;;
42092;SDS011;28974;50.316;18.960;2023-02-19T06:32:59;15.80;;;8.35;;
42092;SDS011;28974;50.316;18.960;2023-02-19T06:44:59;16.63;;;6.82;;
42092;SDS011;28974;50.316;18.960;2023-02-19T06:57:00;17.40;;;8.85;;
42092;SDS011;28974;50.316;18.960;2023-02-19T07:09:01;18.15;;;10.80;;
42092;SDS011;28974;50.316;18.960;2023-02-19T07:21:06;19.75;;;11.07;;
42092;SDS011;28974;50.316;18.960;2023-02-19T07:33:06;26.80;;;12.10;;
42092;SDS011;28974;50.316;18.960;2023-02-19T07:45:07;26.35;;;13.93;;
42092;SDS011;28974;50.316;18.960;2023-02-19T07:57:07;33.00;;;18.85;;
42092;SDS011;28974;50.316;18.960;2023-02-19T08:09:08;34.22;;;18.13;;
42092;SDS011;28974;50.316;18.960;2023-02-19T08:21:08;36.22;;;17.02;;
42092;SDS011;28974;50.316;18.960;2023-02-19T08:33:09;29.67;;;16.55;;
42092;SDS011;28974;50.316;18.960;2023-02-19T08:45:10;39.33;;;19.25;;
42092;SDS011;28974;50.316;18.960;2023-02-19T08:57:11;28.88;;;14.77;;
42092;SDS011;28974;50.316;18.960;2023-02-19T09:09:11;23.42;;;11.73;;
42092;SDS011;28974;50.316;18.960;2023-02-19T09:21:11;32.67;;;17.13;;
42092;SDS011;28974;50.316;18.960;2023-02-19T09:33:12;13.80;;;7.38;;
42092;SDS011;28974;50.316;18.960;2023-02-19T09:45:15;10.57;;;4.10;;
42092;SDS011;28974;50.316;18.960;2023-02-19T09:57:18;10.32;;;4.65;;
42092;SDS011;28974;50.316;18.960;2023-02-19T10:09:23;4.53;;;3.08;;
42092;SDS011;28974;50.316;18.960;2023-02-19T10:21:26;10.77;;;4.73;;
42092;SDS011;28974;50.316;18.960;2023-02-19T10:33:27;11.02;;;4.72;;
42092;SDS011;28974;50.316;18.960;2023-02-19T10:45:37;15.93;;;7.10;;
42092;SDS011;28974;50.316;18.960;2023-02-19T10:57:38;10.80;;;5.03;;
42092;SDS011;28974;50.316;18.960;2023-02-19T11:09:40;10.93;;;5.97;;
42092;SDS011;28974;50.316;18.960;2023-02-19T11:21:42;5.68;;;3.28;;
42092;SDS011;28974;50.316;18.960;2023-02-19T12:10:32;17.30;;;9.85;;
42092;SDS011;28974;50.316;18.960;2023-02-19T12:47:23;9.20;;;4.70;;
42092;SDS011;28974;50.316;18.960;2023-02-19T12:59:37;11.93;;;4.82;;
42092;SDS011;28974;50.316;18.960;2023-02-19T13:11:44;17.80;;;6.53;;
42092;SDS011;28974;50.316;18.960;2023-02-19T13:23:47;15.60;;;5.65;;
42092;SDS011;28974;50.316;18.960;2023-02-19T13:48:23;10.60;;;5.05;;
42092;SDS011;28974;50.316;18.960;2023-02-19T14:00:57;12.93;;;5.68;;
42092;SDS011;28974;50.316;18.960;2023-02-19T14:12:51;10.60;;;4.95;;
42092;SDS011;28974;50.316;18.960;2023-02-19T14:24:52;14.50;;;5.50;;
42092;SDS011;28974;50.316;18.960;2023-02-19T14:48:54;13.80;;;5.90;;
42092;SDS011;28974;50.316;18.960;2023-02-19T15:00:55;17.88;;;6.18;;
42092;SDS011;28974;50.316;18.960;2023-02-19T15:12:57;11.88;;;4.50;;
42092;SDS011;28974;50.316;18.960;2023-02-19T15:24:59;10.23;;;4.72;;
42092;SDS011;28974;50.316;18.960;2023-02-19T15:37:04;8.75;;;4.47;;
42092;SDS011;28974;50.316;18.960;2023-02-19T15:49:17;16.20;;;5.38;;
42092;SDS011;28974;50.316;18.960;2023-02-19T16:01:26;21.83;;;8.05;;
42092;SDS011;28974;50.316;18.960;2023-02-19T16:13:27;16.00;;;8.02;;
42092;SDS011;28974;50.316;18.960;2023-02-19T16:25:35;37.85;;;11.88;;
42092;SDS011;28974;50.316;18.960;2023-02-19T16:49:36;34.20;;;13.40;;
42092;SDS011;28974;50.316;18.960;2023-02-19T17:01:37;30.23;;;9.60;;
42092;SDS011;28974;50.316;18.960;2023-02-19T17:13:38;45.78;;;15.38;;
42092;SDS011;28974;50.316;18.960;2023-02-19T17:25:38;43.87;;;15.77;;
42092;SDS011;28974;50.316;18.960;2023-02-19T17:37:39;41.13;;;12.43;;
42092;SDS011;28974;50.316;18.960;2023-02-19T17:49:39;33.95;;;12.60;;
42092;SDS011;28974;50.316;18.960;2023-02-19T18:01:39;42.40;;;16.88;;
42092;SDS011;28974;50.316;18.960;2023-02-19T18:13:41;55.45;;;19.67;;
42092;SDS011;28974;50.316;18.960;2023-02-19T18:25:41;30.88;;;12.27;;
42092;SDS011;28974;50.316;18.960;2023-02-19T18:37:42;30.88;;;10.10;;
42092;SDS011;28974;50.316;18.960;2023-02-19T18:49:48;27.58;;;10.05;;
42092;SDS011;28974;50.316;18.960;2023-02-19T19:01:49;50.50;;;13.73;;
42092;SDS011;28974;50.316;18.960;2023-02-19T19:13:50;43.33;;;13.75;;
42092;SDS011;28974;50.316;18.960;2023-02-19T19:25:50;47.45;;;14.60;;
42092;SDS011;28974;50.316;18.960;2023-02-19T19:37:51;58.90;;;19.17;;
42092;SDS011;28974;50.316;18.960;2023-02-19T19:49:51;59.50;;;19.98;;
42092;SDS011;28974;50.316;18.960;2023-02-19T20:01:52;53.13;;;18.65;;
42092;SDS011;28974;50.316;18.960;2023-02-19T20:13:53;63.97;;;21.98;;
42092;SDS011;28974;50.316;18.960;2023-02-19T20:25:57;65.38;;;20.90;;
42092;SDS011;28974;50.316;18.960;2023-02-19T20:37:57;58.78;;;19.73;;
42092;SDS011;28974;50.316;18.960;2023-02-19T20:49:57;59.78;;;17.58;;
42092;SDS011;28974;50.316;18.960;2023-02-19T21:01:58;54.15;;;18.38;;
42092;SDS011;28974;50.316;18.960;2023-02-19T21:13:58;63.45;;;16.88;;
42092;SDS011;28974;50.316;18.960;2023-02-19T21:26:00;57.58;;;17.00;;
42092;SDS011;28974;50.316;18.960;2023-02-19T21:38:01;54.35;;;18.88;;
42092;SDS011;28974;50.316;18.960;2023-02-19T21:50:01;63.83;;;19.30;;
42092;SDS011;28974;50.316;18.960;2023-02-19T22:02:02;78.03;;;24.17;;
42092;SDS011;28974;50.316;18.960;2023-02-19T22:14:02;49.28;;;16.73;;
42092;SDS011;28974;50.316;18.960;2023-02-19T22:26:03;56.55;;;15.75;;
42092;SDS011;28974;50.316;18.960;2023-02-19T22:38:03;49.67;;;14.40;;
42092;SDS011;28974;50.316;18.960;2023-02-19T22:50:03;45.67;;;14.80;;
42092;SDS011;28974;50.316;18.960;2023-02-19T23:02:04;39.90;;;14.90;;
42092;SDS011;28974;50.316;18.960;2023-02-19T23:14:05;43.95;;;13.63;;
42092;SDS011;28974;50.316;18.960;2023-02-19T23:26:06;34.28;;;12.00;;
42092;SDS011;28974;50.316;18.960;2023-02-19T23:38:07;39.33;;;10.57;;
42092;SDS011;28974;50.316;18.960;2023-02-19T23:50:07;25.77;;;10.30;;
